Time;durP1;ratioP1;P1;durP2;ratioP2;P2;SDS_P1;SDS_P2;PMS_P1;PMS_P2;Temp;Humidity;BMP_temperature;BMP_pressure;BME280_temperature;BME280_humidity;BME280_pressure;Samples;Min_cycle;Max_cycle;Signal;HPM_P1;HPM_P2
2021/10/16 00:01:36;;;;;;;2.77;1.43;;;22.10;46.90;;;;;;4995072;28;20391;-60
2021/10/16 00:04:02;;;;;;;2.67;1.73;;;22.10;47.10;;;;;;4994921;28;20905;-61
2021/10/16 00:06:28;;;;;;;2.72;1.50;;;22.20;47.00;;;;;;4995025;28;20391;-60
2021/10/16 00:08:53;;;;;;;2.08;1.23;;;22.30;46.90;;;;;;4994783;28;20487;-60
2021/10/16 00:11:19;;;;;;;3.20;1.77;;;22.30;46.80;;;;;;4994451;28;20418;-60
2021/10/16 00:13:44;;;;;;;2.10;1.40;;;22.30;46.80;;;;;;4994831;28;20399;-59
2021/10/16 00:16:10;;;;;;;3.00;1.55;;;22.20;46.80;;;;;;4994820;28;20398;-59
2021/10/16 00:18:36;;;;;;;3.50;1.90;;;22.20;47.00;;;;;;4994749;28;20461;-59
2021/10/16 00:21:03;;;;;;;2.50;1.50;;;22.30;46.90;;;;;;4994232;28;20394;-64
2021/10/16 00:23:29;;;;;;;2.50;1.58;;;22.30;46.80;;;;;;4994696;28;20882;-63
2021/10/16 00:25:55;;;;;;;2.78;1.38;;;22.30;46.70;;;;;;4994581;28;20406;-66
2021/10/16 00:28:21;;;;;;;3.45;1.50;;;22.30;46.70;;;;;;4994696;28;20395;-67
2021/10/16 00:30:47;;;;;;;2.97;1.60;;;22.30;46.80;;;;;;4994493;28;20401;-60
2021/10/16 00:33:14;;;;;;;2.13;1.40;;;22.20;46.80;;;;;;4994031;28;20403;-62
2021/10/16 00:35:40;;;;;;;2.75;1.60;;;22.30;46.90;;;;;;4994486;28;20751;-67
2021/10/16 00:38:05;;;;;;;3.13;1.40;;;22.40;46.70;;;;;;4994466;28;20399;-66
2021/10/16 00:40:31;;;;;;;2.43;1.30;;;22.40;46.60;;;;;;4994510;28;20394;-64
2021/10/16 00:42:57;;;;;;;2.10;1.23;;;22.30;46.60;;;;;;4993885;28;20867;-61
2021/10/16 00:45:24;;;;;;;2.72;1.52;;;22.30;46.70;;;;;;4993927;28;20876;-60
2021/10/16 00:47:51;;;;;;;2.33;1.42;;;22.30;46.70;;;;;;4994149;28;20398;-63
2021/10/16 00:50:19;;;;;;;2.73;1.50;;;22.30;46.80;;;;;;4994210;28;20383;-67
2021/10/16 00:52:46;;;;;;;2.33;1.40;;;22.40;46.70;;;;;;4994080;28;20437;-67
2021/10/16 00:55:14;;;;;;;2.20;1.50;;;22.30;46.50;;;;;;4993640;28;20469;-67
2021/10/16 00:57:41;;;;;;;3.28;1.50;;;22.30;46.60;;;;;;4994107;28;20422;-59
2021/10/16 01:00:09;;;;;;;3.10;1.40;;;22.30;46.60;;;;;;4993996;28;20525;-66
2021/10/16 01:02:35;;;;;;;2.30;1.55;;;22.30;46.70;;;;;;4993971;28;20426;-66
2021/10/16 01:05:02;;;;;;;2.33;1.30;;;22.30;46.80;;;;;;4993661;28;20461;-60
2021/10/16 01:07:31;;;;;;;3.83;1.67;;;22.30;46.70;;;;;;4993674;28;20477;-64
2021/10/16 01:09:57;;;;;;;2.33;1.42;;;22.30;46.50;;;;;;4993706;28;20390;-63
2021/10/16 01:12:23;;;;;;;2.13;1.20;;;22.30;46.60;;;;;;4993786;28;20441;-65
2021/10/16 01:15:02;;;;;;;2.20;1.40;;;22.30;46.60;;;;;;4993662;28;20750;-60
2021/10/16 01:17:30;;;;;;;3.22;1.50;;;22.30;46.60;;;;;;4993433;28;20398;-64
2021/10/16 01:20:04;;;;;;;2.30;1.38;;;22.30;46.80;;;;;;4993560;28;20430;-65
2021/10/16 01:22:32;;;;;;;2.70;1.47;;;22.30;46.60;;;;;;4993595;28;20427;-63
2021/10/16 01:24:59;;;;;;;2.65;1.20;;;22.40;46.50;;;;;;4993443;28;20395;-60
2021/10/16 01:27:25;;;;;;;2.00;1.30;;;22.30;46.50;;;;;;4993393;28;20931;-62
2021/10/16 01:29:51;;;;;;;2.35;1.17;;;22.30;47.20;;;;;;4993306;28;20555;-62
2021/10/16 01:32:17;;;;;;;3.20;1.30;;;22.30;46.60;;;;;;4993233;28;20426;-60
2021/10/16 01:34:44;;;;;;;2.17;1.33;;;22.20;46.70;;;;;;4993345;28;20390;-59
2021/10/16 01:37:10;;;;;;;1.88;1.05;;;22.30;46.60;;;;;;4992715;28;20449;-64
2021/10/16 01:39:35;;;;;;;2.10;1.40;;;22.30;46.50;;;;;;4993290;28;20386;-62
2021/10/16 01:42:01;;;;;;;3.00;1.50;;;22.30;46.50;;;;;;4993177;28;20409;-59
2021/10/16 01:44:27;;;;;;;2.05;1.30;;;22.30;46.60;;;;;;4992921;28;20413;-65
2021/10/16 01:46:53;;;;;;;2.30;1.08;;;22.30;46.60;;;;;;4993023;28;20401;-64
2021/10/16 01:49:20;;;;;;;2.90;1.35;;;22.20;46.90;;;;;;4992627;28;20898;-63
2021/10/16 01:51:47;;;;;;;2.28;1.17;;;22.30;46.70;;;;;;4992899;28;20422;-63
2021/10/16 01:54:13;;;;;;;2.22;1.13;;;22.30;46.50;;;;;;4992982;28;20500;-66
2021/10/16 01:56:39;;;;;;;2.20;1.30;;;22.30;46.50;;;;;;4992906;28;20401;-62
2021/10/16 01:59:16;;;;;;;2.33;1.40;;;22.30;46.50;;;;;;4992552;28;20399;-65
2021/10/16 02:01:43;;;;;;;1.77;1.02;;;22.30;46.60;;;;;;4992756;28;20429;-66
2021/10/16 02:04:09;;;;;;;2.53;1.30;;;22.20;46.60;;;;;;4992150;28;20394;-64
2021/10/16 02:06:35;;;;;;;3.03;1.40;;;22.30;46.70;;;;;;4992786;28;20401;-62
2021/10/16 02:09:01;;;;;;;2.45;1.40;;;22.30;46.50;;;;;;4992665;28;20394;-60
2021/10/16 02:11:27;;;;;;;2.22;1.20;;;22.30;46.50;;;;;;4992394;28;20429;-65
2021/10/16 02:13:53;;;;;;;2.55;1.45;;;22.30;46.50;;;;;;4992571;28;20392;-64
2021/10/16 02:16:18;;;;;;;2.35;1.20;;;22.30;46.60;;;;;;4992722;28;20402;-62
2021/10/16 02:18:44;;;;;;;1.90;1.20;;;22.20;46.60;;;;;;4992682;28;20870;-65
2021/10/16 02:21:10;;;;;;;2.03;1.35;;;22.20;46.60;;;;;;4974664;28;20843;-62
2021/10/16 02:23:35;;;;;;;2.13;1.13;;;22.20;46.50;;;;;;4975068;28;20739;-61
2021/10/16 02:26:01;;;;;;;2.10;1.20;;;22.30;46.50;;;;;;4992387;28;20399;-60
2021/10/16 02:28:26;;;;;;;2.33;1.30;;;22.30;46.50;;;;;;4992530;28;20422;-63
2021/10/16 02:30:52;;;;;;;2.53;1.30;;;22.20;46.50;;;;;;4992360;28;20489;-62
2021/10/16 02:33:18;;;;;;;1.73;1.10;;;22.20;46.60;;;;;;4991809;28;21042;-61
2021/10/16 02:35:43;;;;;;;2.60;1.17;;;22.20;46.70;;;;;;4992357;28;20448;-62
2021/10/16 02:38:09;;;;;;;2.28;1.33;;;22.20;46.50;;;;;;4992155;28;20448;-60
2021/10/16 02:40:35;;;;;;;1.77;1.10;;;22.30;46.40;;;;;;4974807;28;20395;-60
2021/10/16 02:43:02;;;;;;;1.92;1.10;;;22.20;46.40;;;;;;4992194;28;20434;-59
2021/10/16 02:45:28;;;;;;;1.47;1.00;;;22.20;46.50;;;;;;4991426;28;20422;-59
2021/10/16 02:47:54;;;;;;;2.65;1.10;;;22.20;46.50;;;;;;4992144;28;20725;-60
2021/10/16 02:50:20;;;;;;;3.20;1.40;;;22.10;46.60;;;;;;4992229;28;20478;-59
2021/10/16 02:52:45;;;;;;;1.85;1.27;;;22.20;46.60;;;;;;4992003;28;20430;-59
2021/10/16 02:55:11;;;;;;;2.53;1.20;;;22.30;46.40;;;;;;4991532;28;20426;-59
2021/10/16 02:57:37;;;;;;;2.25;1.27;;;22.20;46.40;;;;;;4992116;28;20862;-58
2021/10/16 03:00:04;;;;;;;1.97;1.20;;;22.20;46.50;;;;;;4992037;28;20394;-68
2021/10/16 03:02:29;;;;;;;2.00;1.10;;;22.20;46.50;;;;;;4991963;28;20398;-67
2021/10/16 03:04:55;;;;;;;2.92;1.20;;;22.10;46.70;;;;;;4992031;28;20445;-67
2021/10/16 03:07:21;;;;;;;1.63;1.20;;;22.20;46.60;;;;;;4991548;28;20460;-67
2021/10/16 03:09:46;;;;;;;1.80;1.20;;;22.20;46.40;;;;;;4991973;28;20395;-64
2021/10/16 03:12:12;;;;;;;1.90;1.10;;;22.20;46.40;;;;;;4974536;28;20472;-67
2021/10/16 03:14:38;;;;;;;1.75;1.15;;;22.20;46.40;;;;;;4993969;28;20390;-64
2021/10/16 03:17:03;;;;;;;2.80;1.23;;;22.20;46.50;;;;;;4995883;28;20398;-63
2021/10/16 03:19:29;;;;;;;2.13;1.30;;;22.10;46.50;;;;;;4977968;28;20728;-61
2021/10/16 03:21:56;;;;;;;2.60;1.23;;;22.20;46.60;;;;;;4995832;28;20937;-63
2021/10/16 03:24:22;;;;;;;1.90;1.38;;;22.20;46.40;;;;;;4995786;28;20490;-66
2021/10/16 03:26:48;;;;;;;2.03;1.25;;;22.20;46.40;;;;;;4995745;28;20426;-66
2021/10/16 03:29:14;;;;;;;1.97;1.20;;;22.20;46.40;;;;;;4977689;28;20883;-60
2021/10/16 03:31:39;;;;;;;1.75;1.30;;;22.20;46.50;;;;;;4995606;28;20422;-59
2021/10/16 03:34:05;;;;;;;2.20;1.50;;;22.10;46.50;;;;;;4977972;28;20855;-59
2021/10/16 03:36:31;;;;;;;2.20;1.20;;;22.10;46.60;;;;;;4995582;28;20533;-59
2021/10/16 03:38:56;;;;;;;1.60;1.20;;;22.20;46.50;;;;;;4995151;28;20867;-59
2021/10/16 03:41:22;;;;;;;1.48;1.05;;;22.20;46.40;;;;;;4994986;28;20489;-61
2021/10/16 03:43:48;;;;;;;2.10;1.30;;;22.20;46.40;;;;;;4995209;28;20505;-59
2021/10/16 03:46:13;;;;;;;1.60;1.08;;;22.20;46.50;;;;;;4995057;28;20430;-59
2021/10/16 03:48:39;;;;;;;1.52;1.10;;;22.10;46.50;;;;;;4995165;28;20441;-59
2021/10/16 03:51:04;;;;;;;1.80;1.00;;;22.10;46.70;;;;;;4977611;28;20441;-60
2021/10/16 03:53:30;;;;;;;2.28;1.10;;;22.10;46.50;;;;;;4994561;28;20406;-66
2021/10/16 03:55:56;;;;;;;2.27;1.00;;;22.20;46.40;;;;;;4994898;28;20466;-66
2021/10/16 03:58:21;;;;;;;1.50;1.00;;;22.20;46.40;;;;;;4995044;28;20405;-67
2021/10/16 04:00:48;;;;;;;1.60;1.17;;;22.10;46.40;;;;;;4995097;28;20386;-66
2021/10/16 04:03:14;;;;;;;1.90;1.20;;;22.10;46.50;;;;;;4994614;28;20426;-67
2021/10/16 04:05:41;;;;;;;2.30;1.33;;;22.10;46.70;;;;;;4994908;28;20414;-67
2021/10/16 04:08:08;;;;;;;1.60;1.15;;;22.10;46.50;;;;;;4995028;28;20906;-67
2021/10/16 04:10:35;;;;;;;2.40;1.40;;;22.20;46.50;;;;;;4994992;28;20391;-67
2021/10/16 04:13:01;;;;;;;1.95;1.20;;;22.20;46.40;;;;;;4994803;28;20422;-67
2021/10/16 04:15:27;;;;;;;2.20;1.10;;;22.10;46.40;;;;;;4994378;28;20389;-61
2021/10/16 04:17:52;;;;;;;1.70;1.00;;;22.10;46.50;;;;;;4994696;28;20890;-64
2021/10/16 04:20:18;;;;;;;1.50;1.10;;;22.10;46.50;;;;;;4994799;28;20448;-63
2021/10/16 04:22:44;;;;;;;2.20;1.23;;;22.10;46.60;;;;;;4994703;28;20387;-58
2021/10/16 04:25:09;;;;;;;1.45;1.00;;;22.10;46.40;;;;;;4994098;28;20732;-65
2021/10/16 04:27:36;;;;;;;1.70;1.20;;;22.10;46.40;;;;;;4994091;28;20763;-65
2021/10/16 04:30:02;;;;;;;2.90;1.02;;;22.10;46.40;;;;;;4994486;28;20391;-67
2021/10/16 04:32:28;;;;;;;2.03;0.95;;;22.10;46.50;;;;;;4994498;28;20419;-66
2021/10/16 04:34:54;;;;;;;1.93;1.27;;;22.00;46.50;;;;;;4994508;28;20397;-66
2021/10/16 04:37:19;;;;;;;1.80;1.20;;;22.00;46.60;;;;;;4994004;28;20394;-67
2021/10/16 04:39:45;;;;;;;1.63;0.97;;;22.10;46.50;;;;;;4994404;28;20465;-62
2021/10/16 04:42:12;;;;;;;2.33;1.10;;;22.10;46.40;;;;;;4993385;28;20485;-66
2021/10/16 04:44:39;;;;;;;2.35;1.38;;;22.10;46.40;;;;;;4994026;28;20465;-61
2021/10/16 04:47:06;;;;;;;2.37;1.00;;;22.10;46.50;;;;;;4994226;28;20457;-61
2021/10/16 04:49:34;;;;;;;1.85;1.13;;;22.00;47.10;;;;;;4993748;28;20433;-66
2021/10/16 04:52:01;;;;;;;2.78;1.23;;;22.00;46.70;;;;;;4994065;28;20433;-60
2021/10/16 04:54:26;;;;;;;1.85;1.05;;;22.10;46.60;;;;;;4994098;28;20382;-59
2021/10/16 04:56:52;;;;;;;1.67;1.00;;;22.10;46.40;;;;;;4994115;28;20875;-60
2021/10/16 04:59:18;;;;;;;2.50;1.30;;;22.10;46.50;;;;;;4993540;28;20382;-60
2021/10/16 05:01:43;;;;;;;2.55;1.10;;;22.00;46.50;;;;;;4993987;28;20461;-60
2021/10/16 05:04:09;;;;;;;1.70;1.20;;;22.00;46.50;;;;;;4993865;28;20390;-60
2021/10/16 05:06:34;;;;;;;2.60;1.25;;;22.00;46.70;;;;;;4993885;28;20399;-60
2021/10/16 05:09:00;;;;;;;2.00;1.40;;;22.00;46.60;;;;;;4993784;28;20387;-59
2021/10/16 05:11:26;;;;;;;1.63;1.02;;;22.10;46.40;;;;;;4993300;28;20505;-59
2021/10/16 05:13:51;;;;;;;1.80;1.10;;;22.10;46.50;;;;;;4993688;28;20466;-60
2021/10/16 05:16:17;;;;;;;1.73;1.20;;;22.00;46.50;;;;;;4993723;28;20464;-63
2021/10/16 05:18:43;;;;;;;2.40;1.17;;;22.00;46.50;;;;;;4993675;28;20478;-64
2021/10/16 05:21:09;;;;;;;2.00;1.30;;;21.90;46.60;;;;;;4993552;28;20394;-61
2021/10/16 05:23:35;;;;;;;1.88;1.30;;;22.00;46.60;;;;;;4992998;28;20870;-62
2021/10/16 05:26:01;;;;;;;2.25;1.10;;;22.10;46.50;;;;;;4993458;28;20410;-61
2021/10/16 05:28:27;;;;;;;1.75;0.95;;;22.00;46.50;;;;;;4993482;28;20460;-59
2021/10/16 05:30:53;;;;;;;2.03;1.30;;;22.00;46.50;;;;;;4993233;28;20394;-60
2021/10/16 05:33:18;;;;;;;2.60;1.20;;;22.00;46.60;;;;;;4992883;28;20772;-59
2021/10/16 05:35:44;;;;;;;2.17;1.20;;;21.90;46.60;;;;;;4993080;28;20391;-64
2021/10/16 05:38:11;;;;;;;2.13;1.17;;;22.00;46.70;;;;;;4992209;28;20387;-60
2021/10/16 05:40:37;;;;;;;1.70;1.10;;;22.00;46.50;;;;;;4993229;28;20398;-60
2021/10/16 05:43:02;;;;;;;2.05;1.23;;;22.00;46.50;;;;;;4993131;28;20406;-60
2021/10/16 05:45:28;;;;;;;1.70;1.20;;;22.00;46.50;;;;;;4992512;28;20410;-65
2021/10/16 05:47:54;;;;;;;1.98;1.00;;;21.90;47.10;;;;;;4993039;28;20474;-60
2021/10/16 05:50:19;;;;;;;2.00;1.20;;;21.90;46.60;;;;;;4992985;28;20402;-59
2021/10/16 05:52:45;;;;;;;2.17;1.17;;;21.90;46.70;;;;;;4992930;28;20436;-60
2021/10/16 05:55:11;;;;;;;1.67;1.00;;;22.00;46.60;;;;;;4992985;28;20478;-64
2021/10/16 05:57:36;;;;;;;1.90;1.10;;;22.00;46.50;;;;;;4992519;28;20405;-62
2021/10/16 06:00:04;;;;;;;2.33;1.20;;;22.00;46.50;;;;;;4992811;28;20429;-65
2021/10/16 06:02:30;;;;;;;2.13;1.13;;;21.90;46.50;;;;;;4992765;28;20802;-60
2021/10/16 06:04:56;;;;;;;2.58;1.13;;;21.90;46.70;;;;;;4992742;28;20390;-59
2021/10/16 06:07:21;;;;;;;1.60;1.10;;;21.90;46.80;;;;;;4992376;28;20441;-60
2021/10/16 06:09:47;;;;;;;2.00;1.27;;;22.00;46.70;;;;;;4992650;28;20390;-60
2021/10/16 06:12:13;;;;;;;1.95;1.10;;;22.00;46.50;;;;;;4992599;28;20783;-59
2021/10/16 06:14:38;;;;;;;2.10;1.20;;;21.90;46.50;;;;;;4992623;28;20414;-60
2021/10/16 06:17:04;;;;;;;2.80;1.60;;;21.90;46.50;;;;;;4992535;28;20406;-59
2021/10/16 06:19:30;;;;;;;2.60;1.23;;;21.90;46.40;;;;;;4992145;28;20394;-59
2021/10/16 06:21:56;;;;;;;2.60;1.20;;;21.90;46.60;;;;;;4992407;28;20394;-60
2021/10/16 06:24:22;;;;;;;6.63;1.42;;;21.90;47.00;;;;;;4975583;28;20395;-60
2021/10/16 06:26:47;;;;;;;3.13;1.37;;;21.90;46.90;;;;;;4992395;28;20405;-59
2021/10/16 06:29:13;;;;;;;3.50;1.48;;;21.90;46.90;;;;;;4992507;28;20724;-60
2021/10/16 06:31:39;;;;;;;3.47;1.67;;;21.90;47.40;;;;;;4976370;28;20926;-65
2021/10/16 06:34:04;;;;;;;4.95;1.45;;;21.90;47.90;;;;;;4979898;28;20403;-63
2021/10/16 06:36:30;;;;;;;7.53;1.60;;;21.80;47.40;;;;;;4962938;28;20758;-67
2021/10/16 06:38:55;;;;;;;3.95;1.52;;;21.90;47.80;;;;;;4977680;28;20396;-67
2021/10/16 06:41:22;;;;;;;4.10;1.40;;;21.90;47.90;;;;;;4992215;28;20774;-63
2021/10/16 06:43:47;;;;;;;3.75;1.52;;;21.90;47.50;;;;;;4974664;28;20429;-63
2021/10/16 06:46:13;;;;;;;4.63;1.70;;;21.80;47.40;;;;;;4974871;28;20434;-62
2021/10/16 06:48:38;;;;;;;3.97;1.48;;;21.80;47.70;;;;;;4991925;28;20422;-62
2021/10/16 06:51:04;;;;;;;3.73;1.40;;;21.80;47.80;;;;;;4992148;28;20433;-60
2021/10/16 06:53:30;;;;;;;4.18;1.50;;;21.80;47.90;;;;;;4991569;28;20513;-61
2021/10/16 06:55:56;;;;;;;4.17;1.70;;;21.90;47.80;;;;;;4974597;28;20409;-62
2021/10/16 06:58:21;;;;;;;4.20;1.70;;;21.90;47.80;;;;;;4992140;28;20403;-61
2021/10/16 07:00:47;;;;;;;9.77;2.50;;;21.90;48.20;;;;;;4992113;28;20387;-64
2021/10/16 07:03:14;;;;;;;3.47;1.83;;;21.90;49.40;;;;;;4992018;28;20474;-61
2021/10/16 07:05:41;;;;;;;4.55;1.67;;;21.90;48.30;;;;;;4990702;28;20386;-61
2021/10/16 07:08:07;;;;;;;6.45;1.60;;;21.90;48.50;;;;;;4991800;28;20408;-60
2021/10/16 07:10:33;;;;;;;4.03;1.40;;;21.90;48.10;;;;;;4991874;28;20394;-60
2021/10/16 07:13:03;;;;;;;4.47;1.40;;;21.90;47.90;;;;;;4991973;28;21033;-63
2021/10/16 07:15:29;;;;;;;3.28;1.45;;;21.90;47.80;;;;;;4991592;28;20386;-60
2021/10/16 07:17:54;;;;;;;3.67;1.40;;;21.80;47.90;;;;;;4974503;28;20414;-63
2021/10/16 07:20:21;;;;;;;3.23;1.30;;;21.80;48.00;;;;;;4992039;28;20409;-61
2021/10/16 07:22:46;;;;;;;3.65;1.38;;;21.80;48.40;;;;;;4991747;28;20469;-64
2021/10/16 07:25:12;;;;;;;4.30;1.40;;;21.90;48.50;;;;;;4991939;28;20391;-60
2021/10/16 07:27:38;;;;;;;2.92;1.48;;;21.90;48.30;;;;;;4974101;28;20744;-60
2021/10/16 07:30:05;;;;;;;4.10;1.52;;;21.90;48.40;;;;;;4991777;28;20743;-61
2021/10/16 07:32:31;;;;;;;4.60;1.52;;;21.80;48.70;;;;;;4991826;28;20926;-59
2021/10/16 07:34:57;;;;;;;2.65;1.30;;;21.70;48.60;;;;;;4992059;28;20397;-60
2021/10/16 07:37:22;;;;;;;7.20;1.60;;;21.70;48.60;;;;;;4991854;28;20430;-62
2021/10/16 07:39:48;;;;;;;5.93;1.50;;;21.70;49.30;;;;;;4991683;28;20757;-62
2021/10/16 07:42:14;;;;;;;4.10;1.60;;;21.70;48.80;;;;;;4991386;28;20921;-63
2021/10/16 07:44:40;;;;;;;2.70;1.42;;;21.70;48.70;;;;;;4990467;28;20406;-63
2021/10/16 07:47:05;;;;;;;5.00;1.37;;;21.70;49.00;;;;;;4973276;28;20399;-62
2021/10/16 07:49:31;;;;;;;5.32;1.40;;;21.60;48.70;;;;;;4990365;28;20391;-68
2021/10/16 07:51:57;;;;;;;5.53;1.60;;;21.60;49.10;;;;;;4990003;28;20444;-64
2021/10/16 07:54:24;;;;;;;6.07;1.40;;;21.60;49.00;;;;;;4990339;28;20429;-67
2021/10/16 07:56:50;;;;;;;6.35;1.67;;;21.60;48.80;;;;;;4990274;28;20805;-68
2021/10/16 07:59:15;;;;;;;8.43;2.00;;;21.60;49.20;;;;;;4990360;28;20863;-62
2021/10/16 08:01:41;;;;;;;5.82;1.60;;;21.60;49.00;;;;;;4991564;28;20409;-68
2021/10/16 08:04:07;;;;;;;6.50;1.90;;;21.60;48.70;;;;;;4993876;28;20395;-67
2021/10/16 08:06:33;;;;;;;8.02;1.80;;;21.60;48.60;;;;;;4993750;28;20398;-68
2021/10/16 08:09:01;;;;;;;3.80;1.48;;;21.60;48.70;;;;;;4993596;28;20477;-62
2021/10/16 08:11:26;;;;;;;4.07;1.20;;;21.60;48.70;;;;;;4993325;28;20410;-61
2021/10/16 08:13:52;;;;;;;4.63;1.40;;;21.60;48.70;;;;;;4989980;28;20402;-69
2021/10/16 08:16:18;;;;;;;4.50;1.60;;;21.60;48.70;;;;;;4982349;28;20446;-65
2021/10/16 08:18:43;;;;;;;4.53;1.40;;;21.60;48.90;;;;;;4982464;28;20441;-62
2021/10/16 08:21:09;;;;;;;4.23;1.40;;;21.50;49.00;;;;;;4983410;28;20488;-67
2021/10/16 08:23:35;;;;;;;4.28;1.35;;;21.60;48.80;;;;;;4981192;28;20405;-65
2021/10/16 08:26:00;;;;;;;3.50;1.37;;;21.60;48.90;;;;;;4975652;28;20396;-64
2021/10/16 08:28:31;;;;;;;3.42;1.30;;;21.60;48.70;;;;;;4974086;28;20396;-64
2021/10/16 08:31:00;;;;;;;6.00;1.70;;;21.60;48.70;;;;;;4956376;28;20404;-61
2021/10/16 08:33:25;;;;;;;4.82;1.90;;;21.60;48.50;;;;;;4974646;28;20831;-62
2021/10/16 08:35:51;;;;;;;3.22;1.65;;;21.50;48.30;;;;;;4957482;28;20540;-63
2021/10/16 08:38:17;;;;;;;3.63;1.88;;;21.50;48.30;;;;;;4957723;28;20690;-64
2021/10/16 08:40:43;;;;;;;3.65;1.45;;;21.50;48.30;;;;;;4974960;28;20388;-67
2021/10/16 08:43:10;;;;;;;2.80;1.45;;;21.50;48.20;;;;;;4974936;28;20396;-64
2021/10/16 08:45:36;;;;;;;3.13;1.60;;;21.50;48.30;;;;;;4974303;28;20412;-64
2021/10/16 08:48:06;;;;;;;3.30;1.55;;;21.50;48.30;;;;;;4957427;28;20393;-61
2021/10/16 08:50:33;;;;;;;2.95;1.80;;;21.50;48.30;;;;;;4974824;28;20396;-63
2021/10/16 08:52:58;;;;;;;4.00;1.75;;;21.50;48.30;;;;;;4974624;28;20784;-62
2021/10/16 08:55:24;;;;;;;3.00;1.50;;;21.60;48.30;;;;;;4974509;28;20482;-62
2021/10/16 08:57:50;;;;;;;2.40;1.30;;;21.50;48.20;;;;;;4974406;28;20404;-62
2021/10/16 09:00:51;;;;;;;2.15;1.38;;;21.50;48.20;;;;;;4974643;28;20403;-67
2021/10/16 09:03:25;;;;;;;2.40;1.27;;;21.60;48.30;;;;;;4974604;28;20396;-61
2021/10/16 09:06:06;;;;;;;2.47;1.30;;;21.50;48.30;;;;;;4974354;28;20411;-62
2021/10/16 09:08:53;;;;;;;2.10;1.10;;;21.60;48.30;;;;;;4974434;28;20479;-61
2021/10/16 09:11:32;;;;;;;2.92;1.20;;;21.60;48.30;;;;;;4974384;28;20416;-60
2021/10/16 09:13:59;;;;;;;4.70;2.50;;;21.50;48.30;;;;;;4974426;28;20407;-59
2021/10/16 09:16:28;;;;;;;5.35;2.10;;;21.60;48.30;;;;;;4974325;28;20391;-62
2021/10/16 09:18:57;;;;;;;3.35;2.28;;;21.50;49.00;;;;;;4974167;28;20399;-62
2021/10/16 09:21:24;;;;;;;3.80;2.65;;;21.50;48.80;;;;;;4974409;28;20777;-67
2021/10/16 09:24:07;;;;;;;4.63;2.25;;;21.60;48.60;;;;;;4973847;28;20392;-67
2021/10/16 09:26:34;;;;;;;4.97;2.10;;;21.60;48.80;;;;;;4974056;28;20404;-67
2021/10/16 09:29:04;;;;;;;4.95;2.13;;;21.60;48.80;;;;;;4973894;28;20455;-66
2021/10/16 09:31:38;;;;;;;5.07;2.00;;;21.70;48.80;;;;;;4956205;28;20404;-66
2021/10/16 09:34:05;;;;;;;5.30;1.98;;;21.70;49.00;;;;;;4973752;28;20488;-66
2021/10/16 09:36:34;;;;;;;2.70;1.83;;;21.80;49.10;;;;;;4973961;28;20388;-66
2021/10/16 09:39:00;;;;;;;3.33;1.60;;;21.80;48.90;;;;;;4973868;28;20414;-66
2021/10/16 09:41:37;;;;;;;2.65;1.67;;;21.90;49.00;;;;;;4973758;28;20493;-59
2021/10/16 09:44:23;;;;;;;4.00;1.60;;;21.90;48.80;;;;;;4973626;28;20416;-67
2021/10/16 09:46:56;;;;;;;3.10;1.73;;;22.00;48.70;;;;;;4973742;28;20403;-66
2021/10/16 09:49:28;;;;;;;2.73;1.57;;;22.00;48.50;;;;;;4973760;28;20436;-67
2021/10/16 09:51:54;;;;;;;3.70;1.63;;;22.10;48.60;;;;;;4973382;28;20419;-67
2021/10/16 09:54:20;;;;;;;2.50;1.40;;;22.20;48.50;;;;;;4973724;28;20399;-59
2021/10/16 09:56:46;;;;;;;5.00;1.65;;;22.20;48.50;;;;;;4973536;28;20466;-59
2021/10/16 09:59:18;;;;;;;3.80;1.65;;;22.30;48.50;;;;;;4973476;28;20393;-59
2021/10/16 10:01:44;;;;;;;3.97;1.60;;;22.40;48.40;;;;;;4972643;28;20400;-59
2021/10/16 10:04:11;;;;;;;4.82;1.80;;;22.40;48.30;;;;;;4975162;28;20459;-59
2021/10/16 10:06:38;;;;;;;7.38;1.98;;;22.50;48.30;;;;;;4972901;28;20467;-59
2021/10/16 10:09:06;;;;;;;6.00;1.90;;;22.50;48.30;;;;;;4973379;28;21089;-63
2021/10/16 10:11:33;;;;;;;4.93;2.35;;;22.60;48.20;;;;;;4972971;28;20459;-59
2021/10/16 10:13:59;;;;;;;3.55;1.90;;;22.60;48.10;;;;;;4973200;28;20404;-59
2021/10/16 10:16:25;;;;;;;7.88;2.05;;;22.70;48.10;;;;;;4973202;28;20903;-59
2021/10/16 10:19:00;;;;;;;8.75;1.90;;;22.70;48.20;;;;;;4972869;28;20400;-61
2021/10/16 10:21:34;;;;;;;5.57;2.07;;;22.80;48.20;;;;;;4973228;28;20393;-61
2021/10/16 10:24:02;;;;;;;6.18;1.90;;;22.90;48.30;;;;;;4972288;28;20442;-59
2021/10/16 10:26:33;;;;;;;4.20;1.90;;;23.00;48.20;;;;;;4972713;28;20424;-62
2021/10/16 10:29:07;;;;;;;6.88;1.75;;;23.10;48.20;;;;;;4972623;28;20385;-69
2021/10/16 10:31:45;;;;;;;4.13;1.98;;;23.20;48.20;;;;;;4972728;28;20411;-59
2021/10/16 10:34:16;;;;;;;5.78;1.95;;;23.20;48.00;;;;;;4972970;28;20910;-59
2021/10/16 10:36:53;;;;;;;6.82;1.73;;;23.30;48.20;;;;;;4972950;28;20387;-59
2021/10/16 10:39:34;;;;;;;6.00;1.80;;;23.40;48.00;;;;;;4972906;28;20388;-59
2021/10/16 10:42:22;;;;;;;4.68;1.52;;;23.40;48.10;;;;;;4972796;28;20388;-59
2021/10/16 10:44:50;;;;;;;3.85;1.48;;;23.40;47.90;;;;;;4972498;28;20412;-59
2021/10/16 10:47:30;;;;;;;4.65;1.98;;;23.30;48.00;;;;;;4972814;28;20403;-64
2021/10/16 10:50:08;;;;;;;6.40;2.00;;;23.20;48.30;;;;;;4972704;28;20400;-59
2021/10/16 10:53:01;;;;;;;4.27;1.70;;;23.20;48.10;;;;;;4972689;28;20514;-60
2021/10/16 10:55:26;;;;;;;2.42;1.55;;;23.20;48.30;;;;;;4972748;28;20393;-59
2021/10/16 10:57:57;;;;;;;2.30;1.50;;;23.20;48.10;;;;;;4972256;28;20392;-60
2021/10/16 11:00:30;;;;;;;5.07;1.60;;;23.20;48.40;;;;;;4972777;28;20437;-59
2021/10/16 11:02:57;;;;;;;4.10;1.48;;;23.10;48.30;;;;;;4972680;28;20388;-60
2021/10/16 11:05:32;;;;;;;2.20;1.50;;;23.20;48.30;;;;;;4973145;28;20396;-59
2021/10/16 11:08:13;;;;;;;4.55;1.45;;;23.20;48.30;;;;;;4972339;28;20752;-59
2021/10/16 11:10:41;;;;;;;4.72;1.42;;;23.30;48.20;;;;;;4972651;28;20447;-60
2021/10/16 11:13:14;;;;;;;2.35;1.30;;;23.30;48.60;;;;;;4972415;28;20459;-59
2021/10/16 11:15:41;;;;;;;3.65;1.65;;;23.30;47.80;;;;;;4971806;28;20384;-59
2021/10/16 11:18:15;;;;;;;3.78;1.33;;;23.20;48.10;;;;;;4972509;28;20486;-60
2021/10/16 11:20:42;;;;;;;4.10;1.33;;;23.20;48.00;;;;;;4972550;28;20432;-61
2021/10/16 11:23:24;;;;;;;4.28;1.27;;;23.20;47.90;;;;;;4972467;28;20454;-60
2021/10/16 11:26:09;;;;;;;4.75;1.60;;;23.20;47.70;;;;;;4972158;28;20392;-60
2021/10/16 11:28:37;;;;;;;4.03;1.80;;;23.20;47.90;;;;;;4984110;28;20391;-59
2021/10/16 11:31:04;;;;;;;4.90;1.60;;;23.10;47.80;;;;;;4991836;28;20386;-60
2021/10/16 11:33:32;;;;;;;3.42;1.30;;;23.20;47.90;;;;;;4974486;28;20457;-61
2021/10/16 11:36:00;;;;;;;5.30;1.60;;;23.20;47.90;;;;;;4992305;28;20429;-61
2021/10/16 11:38:36;;;;;;;4.27;1.53;;;23.20;47.90;;;;;;4990700;28;20442;-60
2021/10/16 11:41:04;;;;;;;3.50;1.47;;;23.20;47.90;;;;;;4976216;28;20474;-59
2021/10/16 11:43:34;;;;;;;3.50;1.27;;;23.20;47.80;;;;;;4988523;28;20912;-61
2021/10/16 11:46:00;;;;;;;2.00;1.30;;;23.20;47.80;;;;;;4995183;28;20821;-59
2021/10/16 11:48:26;;;;;;;3.67;1.80;;;23.20;47.80;;;;;;4995500;28;20409;-59
2021/10/16 11:50:55;;;;;;;3.25;1.50;;;23.10;47.70;;;;;;4995250;28;20878;-60
2021/10/16 11:53:21;;;;;;;3.17;1.58;;;23.00;47.60;;;;;;4995185;28;20797;-64
2021/10/16 11:55:53;;;;;;;2.20;1.20;;;23.00;47.60;;;;;;4994541;28;20429;-60
2021/10/16 11:58:21;;;;;;;3.05;1.40;;;22.90;47.50;;;;;;4995040;28;20402;-59
2021/10/16 12:00:51;;;;;;;2.20;1.42;;;22.90;47.50;;;;;;4995037;28;20477;-59
2021/10/16 12:03:19;;;;;;;2.72;1.30;;;22.90;48.20;;;;;;4995156;28;20398;-60
2021/10/16 12:05:48;;;;;;;2.50;1.58;;;22.80;47.50;;;;;;4994471;28;20445;-59
2021/10/16 12:08:22;;;;;;;3.92;1.50;;;22.80;47.60;;;;;;4995022;28;20405;-61
2021/10/16 12:10:49;;;;;;;5.18;1.80;;;22.80;47.60;;;;;;4994838;28;20382;-60
2021/10/16 12:13:22;;;;;;;2.50;1.42;;;22.80;47.60;;;;;;4994766;28;20477;-60
2021/10/16 12:15:50;;;;;;;3.05;1.58;;;22.80;47.60;;;;;;4994553;28;20397;-59
2021/10/16 12:18:36;;;;;;;3.22;1.80;;;22.70;47.50;;;;;;4994844;28;20747;-61
2021/10/16 12:21:04;;;;;;;3.35;1.50;;;22.70;47.60;;;;;;4994380;28;20406;-60
2021/10/16 12:23:49;;;;;;;3.70;1.40;;;22.70;47.50;;;;;;4994182;28;20472;-59
2021/10/16 12:26:23;;;;;;;2.45;1.38;;;22.70;47.60;;;;;;4994757;28;20390;-60
2021/10/16 12:28:51;;;;;;;1.88;1.25;;;22.70;47.60;;;;;;4994694;28;20387;-61
2021/10/16 12:31:17;;;;;;;2.53;1.45;;;22.60;47.50;;;;;;4994584;28;20390;-66
2021/10/16 12:34:05;;;;;;;2.25;1.52;;;22.60;47.60;;;;;;4993998;28;20398;-60
2021/10/16 12:36:41;;;;;;;2.40;1.52;;;22.60;47.50;;;;;;4994517;28;20422;-59
2021/10/16 12:39:09;;;;;;;3.90;1.77;;;22.60;47.40;;;;;;4994494;28;20478;-61
2021/10/16 12:41:40;;;;;;;2.00;1.40;;;22.60;47.40;;;;;;4994532;28;20391;-59
2021/10/16 12:44:35;;;;;;;1.92;1.40;;;22.60;47.40;;;;;;4993994;28;20402;-59
2021/10/16 12:47:09;;;;;;;2.78;1.60;;;22.60;47.40;;;;;;4966130;28;20400;-60
2021/10/16 12:49:40;;;;;;;3.17;1.60;;;22.60;47.40;;;;;;4965715;28;20399;-59
2021/10/16 12:52:31;;;;;;;2.63;1.60;;;22.60;47.40;;;;;;4967749;28;20419;-59